createdAt,value
2022-08-07T13:24:01.848Z,2.83
2022-08-07T13:26:31.230Z,2.45
2022-08-07T13:28:59.120Z,2.58
2022-08-07T13:31:26.401Z,3.40
2022-08-07T13:34:33.615Z,3.15
2022-08-07T13:36:46.291Z,3.00
2022-08-07T13:39:49.082Z,2.80
2022-08-07T13:42:01.149Z,2.80
2022-08-07T13:44:34.502Z,2.63
2022-08-07T13:50:33.462Z,2.40
2022-08-07T13:52:32.063Z,2.67
2022-08-07T13:55:03.487Z,2.60
2022-08-07T13:57:38.500Z,2.55
2022-08-07T14:00:07.135Z,2.15
2022-08-07T14:02:39.787Z,2.55
2022-08-07T14:05:18.050Z,2.72
2022-08-07T14:07:59.619Z,2.70
2022-08-07T14:10:28.338Z,2.30
2022-08-07T14:12:58.751Z,2.88
2022-08-07T14:15:28.547Z,2.47
2022-08-07T14:18:15.628Z,3.00
2022-08-07T14:20:49.070Z,2.25
2022-08-07T14:23:59.005Z,2.28
2022-08-07T14:26:08.586Z,2.30
2022-08-07T14:28:55.856Z,2.30
2022-08-07T14:31:22.093Z,2.15
2022-08-07T14:33:50.472Z,2.45
2022-08-07T14:36:17.241Z,2.00
2022-08-07T14:38:50.523Z,1.90
2022-08-07T14:41:17.533Z,2.10
2022-08-07T14:44:11.590Z,1.70
2022-08-07T14:49:57.099Z,1.60
2022-08-07T14:52:16.869Z,1.58
2022-08-07T14:54:43.643Z,1.52
2022-08-07T14:57:11.698Z,1.60
2022-08-07T15:00:05.707Z,1.75
2022-08-07T15:02:34.928Z,1.60
2022-08-07T15:05:02.147Z,1.52
2022-08-07T15:07:47.183Z,1.83
2022-08-07T15:10:14.505Z,1.45
2022-08-07T15:12:54.715Z,1.70
2022-08-07T15:15:22.842Z,1.98
2022-08-07T15:17:55.151Z,1.63
2022-08-07T15:20:54.539Z,1.75
2022-08-07T15:23:22.763Z,1.27
2022-08-07T15:26:09.594Z,1.30
2022-08-07T15:31:57.897Z,1.83
2022-08-07T15:34:15.016Z,1.40
2022-08-07T15:37:03.890Z,1.42
2022-08-07T15:39:57.378Z,1.73
2022-08-07T15:42:44.358Z,1.50
2022-08-07T15:45:03.833Z,1.50
2022-08-07T15:48:00.237Z,1.60
2022-08-07T15:50:37.889Z,1.40
2022-08-07T15:53:13.754Z,2.25
2022-08-07T15:55:53.715Z,1.75
2022-08-07T15:58:32.481Z,1.27
2022-08-07T16:00:59.468Z,1.30
2022-08-07T16:03:46.551Z,1.20
2022-08-07T16:06:12.899Z,1.00
2022-08-07T16:08:39.616Z,1.35
2022-08-07T16:11:26.458Z,1.40
2022-08-07T16:13:59.382Z,1.30
2022-08-07T16:16:47.884Z,0.93
2022-08-07T16:19:13.628Z,1.40
2022-08-07T16:22:02.366Z,1.20
2022-08-07T16:24:35.055Z,0.90
2022-08-07T16:27:02.202Z,1.30
2022-08-07T16:30:10.722Z,1.08
2022-08-07T16:32:32.836Z,0.90
2022-08-07T16:35:00.170Z,1.10
2022-08-07T16:38:03.808Z,0.90
2022-08-07T16:40:23.344Z,1.25
2022-08-07T16:42:55.800Z,1.20
2022-08-07T16:46:33.513Z,1.00
2022-08-07T16:48:09.381Z,1.00
2022-08-07T16:50:52.815Z,1.10
2022-08-07T16:54:01.547Z,1.00
2022-08-07T16:56:13.984Z,0.95
2022-08-07T16:59:11.234Z,1.20
2022-08-07T17:01:27.435Z,0.90
2022-08-07T17:04:01.387Z,0.90
2022-08-07T17:06:31.391Z,2.00
2022-08-07T17:09:09.312Z,1.10
2022-08-07T17:12:04.184Z,1.75
2022-08-07T17:14:24.547Z,1.45
2022-08-07T17:16:55.487Z,1.42
2022-08-07T17:19:23.998Z,1.67
2022-08-07T17:22:10.589Z,1.20
2022-08-07T17:24:37.424Z,1.50
2022-08-07T17:27:05.468Z,1.15
2022-08-07T17:30:16.194Z,0.90
2022-08-07T17:32:30.760Z,1.00
2022-08-07T17:35:49.785Z,0.88
2022-08-07T17:38:05.185Z,0.82
2022-08-07T17:40:34.095Z,0.90
2022-08-07T17:43:00.943Z,0.90
2022-08-07T17:45:27.704Z,1.00
2022-08-07T17:47:54.575Z,0.80
2022-08-07T17:50:21.998Z,0.80
2022-08-07T17:52:48.807Z,1.10
2022-08-07T17:55:56.611Z,0.82
2022-08-07T17:58:04.158Z,0.80
2022-08-07T18:00:34.656Z,1.00
2022-08-07T18:03:18.094Z,1.00
2022-08-07T18:06:03.489Z,0.90
2022-08-07T18:08:33.069Z,0.90
2022-08-07T18:12:07.855Z,0.90
2022-08-07T18:13:48.458Z,0.98
2022-08-07T18:16:15.849Z,0.80
2022-08-07T18:21:04.548Z,1.00
2022-08-07T18:21:57.895Z,0.90
2022-08-07T18:24:33.978Z,1.00
2022-08-07T18:27:01.687Z,1.00
2022-08-07T18:30:06.479Z,0.90
2022-08-07T18:32:19.847Z,1.00
2022-08-07T18:35:01.239Z,1.00
2022-08-07T18:38:55.332Z,0.88
2022-08-07T18:40:42.858Z,1.00
2022-08-07T18:43:06.314Z,1.20
2022-08-07T18:45:43.375Z,1.10
2022-08-07T18:50:05.933Z,1.00
2022-08-07T18:51:08.390Z,1.05
2022-08-07T18:53:39.283Z,1.15
2022-08-07T18:56:06.646Z,1.10
2022-08-07T18:58:33.358Z,1.20
2022-08-07T19:01:01.228Z,1.20
2022-08-07T19:03:37.831Z,1.20
2022-08-07T19:06:05.174Z,1.00
2022-08-07T19:08:31.972Z,1.10
2022-08-07T19:11:00.744Z,1.10
2022-08-07T19:13:27.736Z,1.10
2022-08-07T19:16:04.981Z,1.00
2022-08-07T19:18:44.791Z,1.08
2022-08-07T19:21:44.176Z,1.20
2022-08-07T19:24:01.333Z,1.00
2022-08-07T19:26:29.165Z,1.23
2022-08-07T19:31:05.748Z,1.30
2022-08-07T19:32:08.235Z,1.45
2022-08-07T19:34:34.022Z,1.20
2022-08-07T19:37:10.253Z,1.13
2022-08-07T19:39:58.018Z,1.20
2022-08-07T19:42:30.363Z,1.30
2022-08-07T19:44:57.390Z,1.20
2022-08-07T19:47:27.846Z,1.17
2022-08-07T19:49:57.703Z,1.08
2022-08-07T19:52:29.690Z,1.50
2022-08-07T19:54:58.402Z,1.30
2022-08-07T19:58:01.692Z,1.00
2022-08-07T20:00:28.128Z,1.27
2022-08-07T20:02:55.623Z,1.10
2022-08-07T20:05:25.350Z,1.35
2022-08-07T20:07:54.914Z,1.33
2022-08-07T20:10:38.346Z,1.20
2022-08-07T20:13:22.986Z,1.35
2022-08-07T20:15:50.795Z,1.50
2022-08-07T20:18:20.117Z,1.50
2022-08-07T20:20:46.916Z,1.60
2022-08-07T20:23:32.694Z,1.65
2022-08-07T20:26:01.760Z,1.35
2022-08-07T20:28:30.821Z,1.45
2022-08-07T20:30:58.194Z,1.48
2022-08-07T20:33:36.969Z,1.63
2022-08-07T20:36:05.325Z,1.70
2022-08-07T20:38:32.560Z,1.50
2022-08-07T20:41:03.880Z,1.80
2022-08-07T20:43:32.511Z,1.70
2022-08-07T20:46:27.637Z,1.77
2022-08-07T20:49:00.761Z,2.03
2022-08-07T20:51:36.144Z,1.60
2022-08-07T20:56:48.213Z,2.10
2022-08-07T21:00:05.065Z,1.90
2022-08-07T21:02:04.429Z,1.63
2022-08-07T21:04:41.389Z,1.77
2022-08-07T21:07:14.310Z,1.92
2022-08-07T21:09:53.034Z,1.85
2022-08-07T21:12:30.678Z,1.90
2022-08-07T21:14:57.675Z,2.22
2022-08-07T21:18:02.842Z,1.80
2022-08-07T21:20:14.208Z,2.58
2022-08-07T21:22:53.717Z,2.80
2022-08-07T21:25:21.567Z,2.97
2022-08-07T21:27:49.152Z,2.45
2022-08-07T21:30:23.557Z,2.78
2022-08-07T21:32:52.016Z,2.70
2022-08-07T21:35:34.743Z,2.50
2022-08-07T21:38:05.947Z,2.05
2022-08-07T21:40:36.106Z,2.80
2022-08-07T21:43:05.206Z,2.80
2022-08-07T21:46:10.419Z,2.40
2022-08-07T21:48:28.281Z,2.35
2022-08-07T21:50:59.125Z,2.50
2022-08-07T21:53:25.819Z,2.97
2022-08-07T21:55:53.001Z,2.63
2022-08-07T21:58:30.017Z,2.70
2022-08-07T22:00:59.589Z,2.90
2022-08-07T22:03:31.049Z,2.75
2022-08-07T22:05:58.523Z,2.50
2022-08-07T22:08:25.216Z,2.67
2022-08-07T22:10:52.034Z,3.78
2022-08-07T22:13:24.638Z,2.65
2022-08-07T22:16:42.993Z,2.90
2022-08-07T22:18:52.755Z,2.92
2022-08-07T22:21:20.447Z,2.75
